• Join FlightAware (Why Join?)
  • Login
  • US Flag 
Gobble Gobble! 
04:18PM EST


 

Airport Tracker/Info


-or-


 

Live Flight TrackerFlight Track Log ✈ DAL6385 ✈ 25-Oct-2013 ✈ KSYR - KDTW

Flight Track Log - Related Links

Times and Time Zones

All times are in EDT time to prevent confusion due to time zone crossing. See the DAL6385 flight status page for this flight to view local times or setup timezone preferences in your user account.

Time Position Orientation Groundspeed Altitude Reporting Facility
EDT Latitude Longitude Course Direction KTS MPH feet Rate Location/Type
03:00PM 43.1081 -76.1306 251° West 141 162 1,100  Level Boston Center
03:01PM 43.1069 -76.1622 267° West 149 171 2,300 2,100 Climbing Boston Center
03:02PM 43.1053 -76.2025 267° West 162 186 4,000 2,400 Climbing Boston Center
03:02PM 43.1067 -76.2264 275° West 172 198 4,700 2,100 Climbing Boston Center
03:03PM 43.1200 -76.2667 294° West 175 201 6,100 2,160 Climbing Boston Center
03:04PM 43.0628 -76.6250 280° West  Level Estimated
03:04PM 43.1492 -76.3292 303° West 189 217 8,700  Level Boston Center
03:05PM 43.1157 -76.7338 304° West  Level FlightAware Approximate
03:05PM 43.1747 -76.3972 297° West 199 229 10,300  Level Cleveland Center
03:06PM 43.1019 -76.8633 251° West  Level Estimated
03:06PM 43.2058 -76.4781 298° West 226 260 11,900  Level Cleveland Center
03:07PM 43.2225 -76.5789 283° West 266 306 13,300 1,200 Climbing Cleveland Center
03:08PM 43.2400 -76.6897 282° West 287 330 14,500 1,440 Climbing Cleveland Center
03:09PM 43.2636 -76.8278 283° West 307 353 16,300 1,560 Climbing Cleveland Center
03:10PM 43.2822 -76.9467 282° West 316 364 17,800 1,440 Climbing Cleveland Center
03:11PM 43.3031 -77.0711 283° West 318 366 19,300 1,440 Climbing Cleveland Center
03:12PM 43.2936 -77.1922 264° West 332 382 20,800 1,440 Climbing Cleveland Center
03:13PM 43.2653 -77.3119 252° West 332 382 22,300 1,440 Climbing Cleveland Center
03:14PM 43.2347 -77.4314 251° West 334 384 23,800 1,440 Climbing Cleveland Center
03:15PM 43.2053 -77.5500 251° West 331 381 25,300 1,020 Climbing Cleveland Center
03:16PM 43.1694 -77.6950 251° West 337 388 26,000 300 Climbing Cleveland Center
03:17PM 43.1367 -77.8292 252° West 371 427 26,000  Level Cleveland Center
03:18PM 43.1014 -77.9692 251° West 390 449 26,000  Level Cleveland Center
03:19PM 43.0650 -78.1156 251° West 406 467 26,000  Level Cleveland Center
03:20PM 43.0183 -78.2950 250° West 418 481 26,000  Level Cleveland Center
03:21PM 42.9800 -78.4453 251° West 421 484 26,000  Level Cleveland Center
03:22PM 42.9403 -78.6000 251° West 429 494 26,000  Level Cleveland Center
03:23PM 42.9119 -78.7564 256° West 430 495 26,000  Level Cleveland Center
03:24PM 42.8900 -78.9136 259° West 426 490 26,000  Level Cleveland Center
03:25PM 42.8639 -79.0758 258° West 436 502 26,000  Level Cleveland Center
03:26PM 42.8383 -79.2653 260° West 428 493 26,000  Level Cleveland Center
03:27PM 42.8133 -79.4250 258° West 432 497 26,000  Level Cleveland Center
03:29PM 42.7889 -79.5817 258° West 429 494 26,000  Level Cleveland Center
03:30PM 42.7656 -79.7383 259° West 425 489 26,000  Level Cleveland Center
03:31PM 42.7458 -79.8958 260° West 426 490 26,000  Level Cleveland Center
03:32PM 42.7400 -80.0725 267° West 418 481 26,000  Level Cleveland Center
03:33PM 42.7328 -80.2306 266° West 417 480 26,000  Level Cleveland Center
03:34PM 42.7269 -80.3894 267° West 418 481 26,000  Level Cleveland Center
03:35PM 42.7203 -80.5458 267° West 414 476 26,000  Level Cleveland Center
03:36PM 42.7125 -80.7339 267° West 424 488 26,000  Level Cleveland Center
03:37PM 42.7053 -80.8906 266° West 417 480 26,000  Level Cleveland Center
03:38PM 42.6875 -81.0489 261° West 419 482 26,000  Level Cleveland Center
03:39PM 42.6694 -81.2075 261° West 421 484 26,000  Level Cleveland Center
03:40PM 42.6514 -81.3622 261° West 415 478 26,000  Level Cleveland Center
03:41PM 42.6339 -81.5094 261° West 398 458 26,000 -900 Level Cleveland Center
03:42PM 42.6164 -81.6553 261° West 391 450 24,200 -2,220 Descending Cleveland Center
03:43PM 42.5972 -81.8161 261° West 396 456 21,500 -2,520 Descending Cleveland Center
03:44PM 42.5792 -81.9650 261° West 401 461 19,000 -2,400 Descending Cleveland Center
03:45PM 42.5608 -82.1117 260° West 366 421 16,600 -2,520 Descending Cleveland Center
03:46PM 42.5444 -82.2492 261° West 344 396 13,900 -2,520 Descending Cleveland Center
03:47PM 42.5344 -82.3461 262° West 340 391 12,100 -1,860 Descending Cleveland Center
03:47PM 42.5283 -82.3742 254° West 340 391 12,000 -120 Descending Cleveland Center
03:48PM 42.5131 -82.4917 260° West 325 374 12,000  Level Cleveland Center
03:48PM 42.5119 -82.5189 267° West 318 366 12,000 -240 Level Cleveland Center
03:49PM 42.4856 -82.6031 247° West 319 367 11,800 -420 Descending Cleveland Center
03:49PM 42.4792 -82.6250 248° West 287 330 11,600 -1,020 Descending Cleveland Center
03:50PM 42.4542 -82.6933 244° Southwest 277 319 10,800 -1,380 Descending Cleveland Center
03:51PM 42.4353 -82.7850 254° West 266 306 9,000 -1,980 Descending Cleveland Center
03:51PM 42.4336 -82.8225 267° West 255 293 8,400 -1,860 Descending Cleveland Center
03:52PM 42.4256 -82.8936 261° West 248 285 7,100 -1,200 Descending Cleveland Center
03:53PM 42.4236 -82.9286 266° West 234 269 7,000 -120 Descending Cleveland Center
03:53PM 42.4186 -82.9781 262° West 233 268 7,000 -180 Level Cleveland Center
03:53PM 42.4194 -82.9872 277° West 217 250 6,900 -1,500 Descending Cleveland Center
03:54PM 42.4014 -83.0575 251° West 222 255 5,500 -1,620 Descending Cleveland Center
03:55PM 42.3953 -83.0858 254° West 227 261 5,000 -1,260 Descending Cleveland Center
03:55PM 42.3814 -83.1406 251° West 229 264 4,200 -1,020 Descending Cleveland Center
03:56PM 42.3767 -83.1653 256° West 235 270 4,100 -420 Descending Cleveland Center
03:56PM 42.3508 -83.2142 234° Southwest 224 258 3,800 -540 Descending Cleveland Center
03:57PM 42.3400 -83.2336 233° Southwest 231 266 3,600 -1,440 Descending Cleveland Center
03:57PM 42.2969 -83.2756 216° Southwest 198 228 2,400 -1,080 Descending Cleveland Center
03:57PM 42.3050 -83.2711 22° Northeast 224 258 2,600 -780 Climbing Cleveland Center
03:59PM 42.2583 -83.3044 208° Southwest 175 201 1,600 -840 Descending Cleveland Center
04:00PM 42.2261 -83.3281 208° Southwest 146 168 900 -780 Descending Cleveland Center
04:00PM 42.2236 -83.3300 210° Southwest 130 150 800 -3,000 Descending Cleveland Center